createdAt,value
2023-12-01T00:05:01.721Z,1.08
2023-12-01T00:10:01.809Z,1.07
2023-12-01T00:15:02.101Z,1.05
2023-12-01T00:20:02.037Z,1.11
2023-12-01T00:25:02.144Z,1.13
2023-12-01T00:29:59.563Z,1.15
2023-12-01T00:34:58.990Z,1.13
2023-12-01T00:39:58.833Z,1.11
2023-12-01T00:44:59.109Z,1.05
2023-12-01T00:49:58.921Z,1.04
2023-12-01T00:54:58.816Z,1.04
2023-12-01T00:59:21.564Z,1.04
2023-12-01T01:04:21.520Z,1.07
2023-12-01T01:09:22.457Z,1.07
2023-12-01T01:14:18.655Z,1.02
2023-12-01T01:19:18.259Z,1.01
2023-12-01T01:24:18.111Z,1.03
2023-12-01T01:29:18.535Z,1
2023-12-01T01:34:20.534Z,0.93
2023-12-01T01:39:19.203Z,0.93
2023-12-01T01:44:19.039Z,0.93
2023-12-01T01:49:20.240Z,0.95
2023-12-01T01:54:16.613Z,0.96
2023-12-01T01:59:17.974Z,1.02
2023-12-01T02:04:18.059Z,1.01
2023-12-01T02:09:18.663Z,1.05
2023-12-01T02:14:18.929Z,1.05
2023-12-01T02:19:19.662Z,0.99
2023-12-01T02:24:20.478Z,0.94
2023-12-01T02:29:17.588Z,0.89
2023-12-01T02:34:17.320Z,0.91
2023-12-01T02:39:17.435Z,0.94
2023-12-01T02:44:17.390Z,0.92
2023-12-01T02:49:17.935Z,0.88
2023-12-01T02:54:18.048Z,0.87
2023-12-01T02:58:47.748Z,0.84
2023-12-01T03:03:47.239Z,0.83
2023-12-01T03:08:47.223Z,0.82
2023-12-01T03:13:46.922Z,0.78
2023-12-01T03:18:46.887Z,0.74
2023-12-01T03:23:47.154Z,0.69
2023-12-01T03:28:46.941Z,0.6
2023-12-01T03:33:46.991Z,0.55
2023-12-01T03:38:44.305Z,0.5
2023-12-01T03:43:43.784Z,0.47
2023-12-01T03:48:43.728Z,0.45
2023-12-01T03:53:43.770Z,0.38
2023-12-01T03:58:43.291Z,0.34
2023-12-01T04:03:43.436Z,0.22
2023-12-01T04:08:43.709Z,0.14
2023-12-01T04:13:48.497Z,0.2
2023-12-01T04:18:44.540Z,0.11
2023-12-01T04:23:40.845Z,0.14
2023-12-01T04:28:40.476Z,0.24
2023-12-01T04:33:40.349Z,0.22
2023-12-01T04:38:40.560Z,0.2
2023-12-01T04:43:40.232Z,0.26
2023-12-01T04:48:40.487Z,0.21
2023-12-01T04:53:40.684Z,0.21
2023-12-01T04:58:41.635Z,0.25
2023-12-01T05:05:02.988Z,0.26
2023-12-01T05:10:02.895Z,0.25
2023-12-01T05:15:03.207Z,0.24
2023-12-01T05:20:02.939Z,0.22
2023-12-01T05:25:03.223Z,0.2
2023-12-01T05:30:02.846Z,0.22
2023-12-01T05:35:02.780Z,0.3
2023-12-01T05:40:01.482Z,0.28
2023-12-01T05:45:01.676Z,0.21
2023-12-01T05:50:01.434Z,0.12
2023-12-01T05:55:01.456Z,0.08
2023-12-01T05:59:23.180Z,0.07
2023-12-01T06:04:23.216Z,0.1
2023-12-01T06:09:23.469Z,0.11
2023-12-01T06:14:23.178Z,0.03
2023-12-01T06:19:23.252Z,0
2023-12-01T06:24:21.607Z,-0.05
2023-12-01T06:29:20.227Z,-0.07
2023-12-01T06:34:20.404Z,-0.05
2023-12-01T06:39:19.907Z,0
2023-12-01T06:44:19.802Z,-0.03
2023-12-01T06:49:20.128Z,0
2023-12-01T06:54:19.853Z,-0.01
2023-12-01T06:59:18.709Z,-0.03
2023-12-01T07:04:14.902Z,-0.02
2023-12-01T07:09:15.357Z,-0.04
2023-12-01T07:14:15.552Z,0
2023-12-01T07:19:16.245Z,0.03
2023-12-01T07:24:16.488Z,0.04
2023-12-01T07:29:16.367Z,0.1
2023-12-01T07:34:14.624Z,0.14
2023-12-01T07:39:14.857Z,0.14
2023-12-01T07:44:15.561Z,0.16
2023-12-01T07:49:16.282Z,0.15
2023-12-01T07:54:16.503Z,0.17
2023-12-01T07:58:47.665Z,0.19
2023-12-01T08:05:21.029Z,0.22
2023-12-01T08:10:21.001Z,0.25
2023-12-01T08:15:21.181Z,0.3
2023-12-01T08:20:21.182Z,0.29
2023-12-01T08:25:21.967Z,0.33
2023-12-01T08:30:22.814Z,0.33
2023-12-01T08:35:18.844Z,0.36
2023-12-01T08:40:19.404Z,0.41
2023-12-01T08:45:19.623Z,0.45
2023-12-01T08:50:20.473Z,0.43
2023-12-01T08:55:20.775Z,0.52
2023-12-01T08:59:44.051Z,0.52
2023-12-01T09:04:45.075Z,0.56
2023-12-01T09:09:41.298Z,0.64
2023-12-01T09:14:41.003Z,0.67
2023-12-01T09:19:40.876Z,0.64
2023-12-01T09:24:41.267Z,0.67
2023-12-01T09:29:41.217Z,0.67
2023-12-01T09:34:41.483Z,0.76
2023-12-01T09:39:42.789Z,0.85
2023-12-01T09:44:42.767Z,0.93
2023-12-01T09:49:39.098Z,0.96
2023-12-01T09:54:39.594Z,0.99
2023-12-01T09:59:19.865Z,1.02
2023-12-01T10:04:20.493Z,1.02
2023-12-01T10:09:20.403Z,1.02
2023-12-01T10:14:20.809Z,1.03
2023-12-01T10:19:21.910Z,1.07
2023-12-01T10:24:17.917Z,1.1
2023-12-01T10:29:18.437Z,1.17
2023-12-01T10:34:18.615Z,1.19
2023-12-01T10:39:19.521Z,1.19
2023-12-01T10:44:19.838Z,1.16
2023-12-01T10:49:19.776Z,1.16
2023-12-01T10:54:18.241Z,1.23
2023-12-01T10:58:49.688Z,1.3
2023-12-01T11:03:49.662Z,1.33
2023-12-01T11:08:49.767Z,1.33
2023-12-01T11:13:49.604Z,1.3
2023-12-01T11:18:50.273Z,1.39
2023-12-01T11:23:50.001Z,1.43
2023-12-01T11:28:50.110Z,1.44
2023-12-01T11:33:47.864Z,1.46
2023-12-01T11:38:47.056Z,1.47
2023-12-01T11:43:46.821Z,1.49
2023-12-01T11:48:47.075Z,1.52
2023-12-01T11:53:46.718Z,1.56
2023-12-01T11:58:46.818Z,1.63
2023-12-01T12:03:47.430Z,1.68
2023-12-01T12:08:47.086Z,1.76
2023-12-01T12:13:48.148Z,1.74
2023-12-01T12:18:44.405Z,1.8
2023-12-01T12:23:44.124Z,1.77
2023-12-01T12:28:44.004Z,1.76
2023-12-01T12:33:44.383Z,1.74
2023-12-01T12:38:44.241Z,1.76
2023-12-01T12:43:44.423Z,1.74
2023-12-01T12:48:44.151Z,1.71
2023-12-01T12:53:44.173Z,1.69
2023-12-01T12:58:41.880Z,1.69
2023-12-01T13:05:03.938Z,1.71
2023-12-01T13:10:04.244Z,1.61
2023-12-01T13:15:04.162Z,1.59
2023-12-01T13:20:04.346Z,1.61
2023-12-01T13:25:04.093Z,1.56
2023-12-01T13:30:03.722Z,1.57
2023-12-01T13:35:02.286Z,1.56
2023-12-01T13:40:01.679Z,1.57
2023-12-01T13:45:02.357Z,1.5
2023-12-01T13:50:01.749Z,1.49
2023-12-01T13:55:01.263Z,1.49
2023-12-01T13:59:23.432Z,1.46
2023-12-01T14:04:23.759Z,1.43
2023-12-01T14:09:23.457Z,1.41
2023-12-01T14:14:23.372Z,1.45
2023-12-01T14:19:20.843Z,1.51
2023-12-01T14:24:20.320Z,1.5
2023-12-01T14:29:20.012Z,1.43
2023-12-01T14:34:20.614Z,1.43
2023-12-01T14:39:20.540Z,1.44
2023-12-01T14:44:21.113Z,1.47
2023-12-01T14:49:20.871Z,1.48
2023-12-01T14:54:20.786Z,1.43
2023-12-01T14:59:16.847Z,1.44
2023-12-01T15:04:17.269Z,1.4
2023-12-01T15:09:17.337Z,1.42
2023-12-01T15:14:17.801Z,1.42
2023-12-01T15:19:18.024Z,1.36
2023-12-01T15:24:18.756Z,1.37
2023-12-01T15:29:19.523Z,1.3
2023-12-01T15:34:16.714Z,1.28
2023-12-01T15:39:16.415Z,1.27
2023-12-01T15:44:16.564Z,1.3
2023-12-01T15:49:16.520Z,1.27
2023-12-01T15:54:17.014Z,1.25
2023-12-01T15:58:50.188Z,1.22
2023-12-01T16:03:48.952Z,1.27
2023-12-01T16:08:48.262Z,1.26
2023-12-01T16:13:48.081Z,1.23
2023-12-01T16:18:48.587Z,1.26
2023-12-01T16:23:48.490Z,1.22
2023-12-01T16:28:48.630Z,1.22
2023-12-01T16:33:48.287Z,1.19
2023-12-01T16:38:48.176Z,1.15
2023-12-01T16:43:46.776Z,1.16
2023-12-01T16:48:46.198Z,1.21
2023-12-01T16:53:45.877Z,1.23
2023-12-01T16:58:46.071Z,1.21
2023-12-01T17:03:45.631Z,1.17
2023-12-01T17:08:45.481Z,1.17
2023-12-01T17:13:45.870Z,1.15
2023-12-01T17:18:45.645Z,1.1
2023-12-01T17:23:45.731Z,1.11
2023-12-01T17:28:43.132Z,1.16
2023-12-01T17:33:42.742Z,1.14
2023-12-01T17:38:42.431Z,1.12
2023-12-01T17:43:42.748Z,1.11
2023-12-01T17:48:42.520Z,1.13
2023-12-01T17:53:43.062Z,1.14
2023-12-01T17:58:42.833Z,1.09
2023-12-01T18:00:44.884Z,1.07
2023-12-01T18:05:04.450Z,1.04
2023-12-01T18:10:04.070Z,1.04
2023-12-01T18:15:04.109Z,1.01
2023-12-01T18:20:04.530Z,1
2023-12-01T18:25:04.171Z,1
2023-12-01T18:30:04.276Z,0.99
2023-12-01T18:35:03.783Z,0.94
2023-12-01T18:40:03.847Z,0.94
2023-12-01T18:45:02.327Z,0.91
2023-12-01T18:50:01.535Z,0.84
2023-12-01T18:55:01.330Z,0.86
2023-12-01T18:59:22.732Z,0.8
2023-12-01T19:04:22.463Z,0.77
2023-12-01T19:09:22.434Z,0.76
2023-12-01T19:14:22.826Z,0.74
2023-12-01T19:19:22.684Z,0.78
2023-12-01T19:24:22.713Z,0.75
2023-12-01T19:29:20.101Z,0.75
2023-12-01T19:34:19.777Z,0.7
2023-12-01T19:39:19.802Z,0.69
2023-12-01T19:44:19.264Z,0.68
2023-12-01T19:49:19.264Z,0.69
2023-12-01T19:54:21.215Z,0.65
2023-12-01T19:59:17.359Z,0.67
2023-12-01T20:04:17.962Z,0.7
2023-12-01T20:09:15.200Z,0.71
2023-12-01T20:14:04.165Z,0.67
2023-12-01T20:19:04.539Z,0.68
2023-12-01T20:24:04.117Z,0.66
2023-12-01T20:29:04.188Z,0.61
2023-12-01T20:34:04.615Z,0.54
2023-12-01T20:39:07.044Z,0.5
2023-12-01T20:44:05.572Z,0.47
2023-12-01T20:49:01.851Z,0.49
2023-12-01T20:54:01.329Z,0.51
2023-12-01T20:58:44.229Z,0.5
2023-12-01T21:03:44.522Z,0.47
2023-12-01T21:08:44.701Z,0.45
2023-12-01T21:13:45.097Z,0.38
2023-12-01T21:18:45.067Z,0.37
2023-12-01T21:23:46.023Z,0.33
2023-12-01T21:28:42.246Z,0.33
2023-12-01T21:33:41.900Z,0.29
2023-12-01T21:38:41.709Z,0.22
2023-12-01T21:43:42.518Z,0.22
2023-12-01T21:48:42.066Z,0.19
2023-12-01T21:53:42.174Z,0.18
2023-12-01T21:58:41.723Z,0.15
2023-12-01T22:03:41.610Z,0.16
2023-12-01T22:08:40.101Z,0.08
2023-12-01T22:13:39.304Z,0.05
2023-12-01T22:18:39.120Z,0.05
2023-12-01T22:23:39.242Z,0
2023-12-01T22:28:38.758Z,-0.03
2023-12-01T22:33:38.656Z,-0.04
2023-12-01T22:38:38.772Z,-0.03
2023-12-01T22:43:38.606Z,-0.03
2023-12-01T22:48:36.938Z,-0.07
2023-12-01T22:53:36.115Z,-0.13
2023-12-01T22:58:36.033Z,-0.13
2023-12-01T23:00:38.268Z,-0.14
2023-12-01T23:04:58.106Z,-0.17
2023-12-01T23:09:57.844Z,-0.14
2023-12-01T23:14:58.260Z,-0.09
2023-12-01T23:19:58.060Z,-0.13
2023-12-01T23:24:58.053Z,-0.18
2023-12-01T23:29:55.613Z,-0.18
2023-12-01T23:34:55.124Z,-0.15
2023-12-01T23:39:54.880Z,-0.16
2023-12-01T23:44:55.233Z,-0.28
2023-12-01T23:49:54.893Z,-0.3
2023-12-01T23:54:55.061Z,-0.34
2023-12-01T23:59:17.790Z,-0.33
